sensor_id;sensor_type;location;lat;lon;timestamp;P1;durP1;ratioP1;P2;durP2;ratioP2
12745;SDS011;6437;53.686;10.030;2023-03-13T00:01:28;47.75;;;10.23;;
12745;SDS011;6437;53.686;10.030;2023-03-13T00:03:31;48.97;;;10.23;;
12745;SDS011;6437;53.686;10.030;2023-03-13T00:05:35;42.60;;;9.77;;
12745;SDS011;6437;53.686;10.030;2023-03-13T00:07:37;54.38;;;11.00;;
12745;SDS011;6437;53.686;10.030;2023-03-13T00:09:39;40.95;;;8.18;;
12745;SDS011;6437;53.686;10.030;2023-03-13T00:11:41;43.42;;;9.05;;
12745;SDS011;6437;53.686;10.030;2023-03-13T00:13:43;49.45;;;9.82;;
12745;SDS011;6437;53.686;10.030;2023-03-13T00:15:45;48.47;;;8.52;;
12745;SDS011;6437;53.686;10.030;2023-03-13T00:17:46;55.58;;;8.98;;
12745;SDS011;6437;53.686;10.030;2023-03-13T00:19:48;48.40;;;8.25;;
12745;SDS011;6437;53.686;10.030;2023-03-13T00:23:54;37.78;;;7.78;;
12745;SDS011;6437;53.686;10.030;2023-03-13T00:25:56;50.47;;;7.43;;
12745;SDS011;6437;53.686;10.030;2023-03-13T00:27:59;41.28;;;7.88;;
12745;SDS011;6437;53.686;10.030;2023-03-13T00:30:00;37.72;;;8.10;;
12745;SDS011;6437;53.686;10.030;2023-03-13T00:32:02;42.72;;;8.85;;
12745;SDS011;6437;53.686;10.030;2023-03-13T00:36:06;46.75;;;9.05;;
12745;SDS011;6437;53.686;10.030;2023-03-13T00:38:11;43.20;;;9.10;;
12745;SDS011;6437;53.686;10.030;2023-03-13T00:40:13;58.47;;;8.55;;
12745;SDS011;6437;53.686;10.030;2023-03-13T00:42:15;55.45;;;8.43;;
12745;SDS011;6437;53.686;10.030;2023-03-13T00:44:17;61.95;;;9.80;;
12745;SDS011;6437;53.686;10.030;2023-03-13T00:46:19;45.50;;;7.40;;
12745;SDS011;6437;53.686;10.030;2023-03-13T00:48:22;59.45;;;7.30;;
12745;SDS011;6437;53.686;10.030;2023-03-13T00:50:24;49.15;;;9.65;;
12745;SDS011;6437;53.686;10.030;2023-03-13T00:52:26;51.20;;;6.55;;
12745;SDS011;6437;53.686;10.030;2023-03-13T00:54:29;46.50;;;8.60;;
12745;SDS011;6437;53.686;10.030;2023-03-13T00:56:31;57.42;;;9.35;;
12745;SDS011;6437;53.686;10.030;2023-03-13T00:58:33;65.43;;;9.27;;
12745;SDS011;6437;53.686;10.030;2023-03-13T01:00:36;46.10;;;7.38;;
12745;SDS011;6437;53.686;10.030;2023-03-13T01:02:40;69.45;;;10.85;;
12745;SDS011;6437;53.686;10.030;2023-03-13T01:04:45;42.00;;;6.93;;
12745;SDS011;6437;53.686;10.030;2023-03-13T01:06:47;49.15;;;7.95;;
12745;SDS011;6437;53.686;10.030;2023-03-13T01:08:49;51.00;;;8.48;;
12745;SDS011;6437;53.686;10.030;2023-03-13T01:12:59;51.42;;;9.82;;
12745;SDS011;6437;53.686;10.030;2023-03-13T01:15:00;60.35;;;10.30;;
12745;SDS011;6437;53.686;10.030;2023-03-13T01:17:02;65.07;;;8.95;;
12745;SDS011;6437;53.686;10.030;2023-03-13T01:19:05;46.90;;;6.70;;
12745;SDS011;6437;53.686;10.030;2023-03-13T01:21:08;51.45;;;8.85;;
12745;SDS011;6437;53.686;10.030;2023-03-13T01:23:11;53.80;;;8.57;;
12745;SDS011;6437;53.686;10.030;2023-03-13T01:25:13;44.63;;;7.47;;
12745;SDS011;6437;53.686;10.030;2023-03-13T01:29:18;70.55;;;9.95;;
12745;SDS011;6437;53.686;10.030;2023-03-13T01:31:20;50.80;;;8.18;;
12745;SDS011;6437;53.686;10.030;2023-03-13T01:33:23;47.47;;;8.90;;
12745;SDS011;6437;53.686;10.030;2023-03-13T01:35:25;44.85;;;8.65;;
12745;SDS011;6437;53.686;10.030;2023-03-13T01:37:27;55.90;;;8.75;;
12745;SDS011;6437;53.686;10.030;2023-03-13T01:39:28;56.58;;;8.50;;
12745;SDS011;6437;53.686;10.030;2023-03-13T01:41:30;52.10;;;9.77;;
12745;SDS011;6437;53.686;10.030;2023-03-13T01:43:34;35.30;;;6.65;;
12745;SDS011;6437;53.686;10.030;2023-03-13T01:45:53;39.15;;;6.68;;
12745;SDS011;6437;53.686;10.030;2023-03-13T01:47:59;54.88;;;8.07;;
12745;SDS011;6437;53.686;10.030;2023-03-13T01:50:00;59.92;;;8.80;;
12745;SDS011;6437;53.686;10.030;2023-03-13T01:52:03;54.72;;;8.23;;
12745;SDS011;6437;53.686;10.030;2023-03-13T01:54:10;46.38;;;8.75;;
12745;SDS011;6437;53.686;10.030;2023-03-13T01:56:16;57.20;;;9.07;;
12745;SDS011;6437;53.686;10.030;2023-03-13T01:58:20;70.53;;;10.02;;
12745;SDS011;6437;53.686;10.030;2023-03-13T02:00:24;54.92;;;9.60;;
12745;SDS011;6437;53.686;10.030;2023-03-13T02:02:29;49.08;;;8.88;;
12745;SDS011;6437;53.686;10.030;2023-03-13T02:04:34;53.92;;;8.75;;
12745;SDS011;6437;53.686;10.030;2023-03-13T02:06:38;56.22;;;9.55;;
12745;SDS011;6437;53.686;10.030;2023-03-13T02:08:43;51.67;;;8.57;;
12745;SDS011;6437;53.686;10.030;2023-03-13T02:10:52;55.55;;;8.95;;
12745;SDS011;6437;53.686;10.030;2023-03-13T02:13:04;43.83;;;8.43;;
12745;SDS011;6437;53.686;10.030;2023-03-13T02:15:07;51.50;;;8.98;;
12745;SDS011;6437;53.686;10.030;2023-03-13T02:17:13;61.35;;;8.63;;
12745;SDS011;6437;53.686;10.030;2023-03-13T02:19:16;67.38;;;10.68;;
12745;SDS011;6437;53.686;10.030;2023-03-13T02:21:24;63.38;;;7.85;;
12745;SDS011;6437;53.686;10.030;2023-03-13T02:23:35;50.40;;;10.25;;
12745;SDS011;6437;53.686;10.030;2023-03-13T02:25:43;60.92;;;9.07;;
12745;SDS011;6437;53.686;10.030;2023-03-13T02:27:46;57.75;;;8.52;;
12745;SDS011;6437;53.686;10.030;2023-03-13T02:29:50;57.08;;;8.02;;
12745;SDS011;6437;53.686;10.030;2023-03-13T02:31:53;54.10;;;8.00;;
12745;SDS011;6437;53.686;10.030;2023-03-13T02:33:55;51.33;;;9.25;;
12745;SDS011;6437;53.686;10.030;2023-03-13T02:36:01;64.50;;;8.40;;
12745;SDS011;6437;53.686;10.030;2023-03-13T02:38:05;56.88;;;8.18;;
12745;SDS011;6437;53.686;10.030;2023-03-13T02:40:11;64.18;;;9.70;;
12745;SDS011;6437;53.686;10.030;2023-03-13T02:42:18;54.38;;;9.68;;
12745;SDS011;6437;53.686;10.030;2023-03-13T02:44:22;52.45;;;8.77;;
12745;SDS011;6437;53.686;10.030;2023-03-13T02:46:23;55.33;;;6.70;;
12745;SDS011;6437;53.686;10.030;2023-03-13T02:48:29;53.70;;;6.97;;
12745;SDS011;6437;53.686;10.030;2023-03-13T02:50:32;50.45;;;7.88;;
12745;SDS011;6437;53.686;10.030;2023-03-13T02:52:36;41.75;;;6.95;;
12745;SDS011;6437;53.686;10.030;2023-03-13T02:54:42;63.63;;;9.00;;
12745;SDS011;6437;53.686;10.030;2023-03-13T02:56:47;47.20;;;6.72;;
12745;SDS011;6437;53.686;10.030;2023-03-13T02:58:53;33.03;;;6.57;;
12745;SDS011;6437;53.686;10.030;2023-03-13T03:00:55;40.05;;;6.07;;
12745;SDS011;6437;53.686;10.030;2023-03-13T03:02:57;44.45;;;7.88;;
12745;SDS011;6437;53.686;10.030;2023-03-13T03:04:59;55.08;;;7.15;;
12745;SDS011;6437;53.686;10.030;2023-03-13T03:07:00;54.00;;;7.40;;
12745;SDS011;6437;53.686;10.030;2023-03-13T03:09:02;33.40;;;7.30;;
12745;SDS011;6437;53.686;10.030;2023-03-13T03:11:04;47.60;;;6.78;;
12745;SDS011;6437;53.686;10.030;2023-03-13T03:13:06;48.90;;;7.53;;
12745;SDS011;6437;53.686;10.030;2023-03-13T03:15:09;47.03;;;6.97;;
12745;SDS011;6437;53.686;10.030;2023-03-13T03:17:11;53.00;;;7.93;;
12745;SDS011;6437;53.686;10.030;2023-03-13T03:19:13;54.50;;;7.88;;
12745;SDS011;6437;53.686;10.030;2023-03-13T03:21:15;55.92;;;8.27;;
12745;SDS011;6437;53.686;10.030;2023-03-13T03:23:17;57.05;;;7.93;;
12745;SDS011;6437;53.686;10.030;2023-03-13T03:25:18;48.50;;;7.97;;
12745;SDS011;6437;53.686;10.030;2023-03-13T03:27:20;59.58;;;8.02;;
12745;SDS011;6437;53.686;10.030;2023-03-13T03:29:22;62.70;;;7.68;;
12745;SDS011;6437;53.686;10.030;2023-03-13T03:31:25;54.90;;;6.82;;
12745;SDS011;6437;53.686;10.030;2023-03-13T03:33:27;56.67;;;7.68;;
12745;SDS011;6437;53.686;10.030;2023-03-13T03:35:29;60.35;;;7.85;;
12745;SDS011;6437;53.686;10.030;2023-03-13T03:37:31;49.95;;;7.57;;
12745;SDS011;6437;53.686;10.030;2023-03-13T03:39:32;45.08;;;6.00;;
12745;SDS011;6437;53.686;10.030;2023-03-13T03:41:35;48.97;;;7.05;;
12745;SDS011;6437;53.686;10.030;2023-03-13T03:43:37;41.38;;;6.68;;
12745;SDS011;6437;53.686;10.030;2023-03-13T03:45:40;45.65;;;7.10;;
12745;SDS011;6437;53.686;10.030;2023-03-13T03:47:43;37.15;;;6.55;;
12745;SDS011;6437;53.686;10.030;2023-03-13T03:49:45;45.50;;;7.20;;
12745;SDS011;6437;53.686;10.030;2023-03-13T03:51:46;36.40;;;6.50;;
12745;SDS011;6437;53.686;10.030;2023-03-13T03:53:48;40.47;;;5.10;;
12745;SDS011;6437;53.686;10.030;2023-03-13T03:55:50;52.40;;;7.15;;
12745;SDS011;6437;53.686;10.030;2023-03-13T03:57:52;40.25;;;5.82;;
12745;SDS011;6437;53.686;10.030;2023-03-13T03:59:53;63.55;;;8.25;;
12745;SDS011;6437;53.686;10.030;2023-03-13T04:01:55;48.30;;;8.55;;
12745;SDS011;6437;53.686;10.030;2023-03-13T04:03:58;41.78;;;7.35;;
12745;SDS011;6437;53.686;10.030;2023-03-13T04:06:00;52.20;;;7.00;;
12745;SDS011;6437;53.686;10.030;2023-03-13T04:08:02;48.30;;;5.05;;
12745;SDS011;6437;53.686;10.030;2023-03-13T04:10:04;40.45;;;8.18;;
12745;SDS011;6437;53.686;10.030;2023-03-13T04:12:07;45.60;;;7.35;;
12745;SDS011;6437;53.686;10.030;2023-03-13T04:14:09;44.05;;;6.80;;
12745;SDS011;6437;53.686;10.030;2023-03-13T04:16:11;38.80;;;4.82;;
12745;SDS011;6437;53.686;10.030;2023-03-13T04:18:12;46.20;;;6.38;;
12745;SDS011;6437;53.686;10.030;2023-03-13T04:20:17;45.13;;;6.75;;
12745;SDS011;6437;53.686;10.030;2023-03-13T04:22:19;50.88;;;6.28;;
12745;SDS011;6437;53.686;10.030;2023-03-13T04:24:20;39.40;;;6.18;;
12745;SDS011;6437;53.686;10.030;2023-03-13T04:26:22;57.72;;;6.82;;
12745;SDS011;6437;53.686;10.030;2023-03-13T04:28:24;35.70;;;5.13;;
12745;SDS011;6437;53.686;10.030;2023-03-13T04:30:25;38.25;;;5.82;;
12745;SDS011;6437;53.686;10.030;2023-03-13T04:32:27;42.20;;;6.57;;
12745;SDS011;6437;53.686;10.030;2023-03-13T04:34:29;42.83;;;6.95;;
12745;SDS011;6437;53.686;10.030;2023-03-13T04:36:32;40.28;;;6.22;;
12745;SDS011;6437;53.686;10.030;2023-03-13T04:38:34;46.03;;;7.22;;
12745;SDS011;6437;53.686;10.030;2023-03-13T04:40:36;53.65;;;6.80;;
12745;SDS011;6437;53.686;10.030;2023-03-13T04:42:38;45.40;;;6.72;;
12745;SDS011;6437;53.686;10.030;2023-03-13T04:46:41;48.28;;;5.47;;
12745;SDS011;6437;53.686;10.030;2023-03-13T04:48:43;39.00;;;6.63;;
12745;SDS011;6437;53.686;10.030;2023-03-13T04:50:46;39.42;;;5.75;;
12745;SDS011;6437;53.686;10.030;2023-03-13T04:52:50;52.28;;;6.70;;
12745;SDS011;6437;53.686;10.030;2023-03-13T04:54:51;29.52;;;6.35;;
12745;SDS011;6437;53.686;10.030;2023-03-13T04:56:53;39.05;;;6.20;;
12745;SDS011;6437;53.686;10.030;2023-03-13T04:58:55;31.67;;;4.95;;
12745;SDS011;6437;53.686;10.030;2023-03-13T05:00:56;43.13;;;6.60;;
12745;SDS011;6437;53.686;10.030;2023-03-13T05:02:58;36.30;;;6.00;;
12745;SDS011;6437;53.686;10.030;2023-03-13T05:05:00;42.60;;;5.57;;
12745;SDS011;6437;53.686;10.030;2023-03-13T05:07:02;35.83;;;5.05;;
12745;SDS011;6437;53.686;10.030;2023-03-13T05:09:05;39.70;;;6.35;;
12745;SDS011;6437;53.686;10.030;2023-03-13T05:11:07;33.97;;;5.63;;
12745;SDS011;6437;53.686;10.030;2023-03-13T05:13:08;36.20;;;4.75;;
12745;SDS011;6437;53.686;10.030;2023-03-13T05:15:10;29.80;;;5.53;;
12745;SDS011;6437;53.686;10.030;2023-03-13T05:17:12;38.80;;;4.80;;
12745;SDS011;6437;53.686;10.030;2023-03-13T05:19:14;38.08;;;5.97;;
12745;SDS011;6437;53.686;10.030;2023-03-13T05:21:15;34.75;;;5.65;;
12745;SDS011;6437;53.686;10.030;2023-03-13T05:23:17;30.77;;;5.28;;
12745;SDS011;6437;53.686;10.030;2023-03-13T05:25:20;42.05;;;6.53;;
12745;SDS011;6437;53.686;10.030;2023-03-13T05:27:22;30.55;;;4.05;;
12745;SDS011;6437;53.686;10.030;2023-03-13T05:29:24;42.25;;;5.75;;
12745;SDS011;6437;53.686;10.030;2023-03-13T05:31:25;48.53;;;6.35;;
12745;SDS011;6437;53.686;10.030;2023-03-13T05:33:27;28.80;;;5.63;;
12745;SDS011;6437;53.686;10.030;2023-03-13T05:35:29;37.20;;;4.93;;
12745;SDS011;6437;53.686;10.030;2023-03-13T05:37:31;38.45;;;5.28;;
12745;SDS011;6437;53.686;10.030;2023-03-13T05:39:32;36.00;;;4.88;;
12745;SDS011;6437;53.686;10.030;2023-03-13T05:41:35;26.70;;;4.65;;
12745;SDS011;6437;53.686;10.030;2023-03-13T05:43:38;30.88;;;4.82;;
12745;SDS011;6437;53.686;10.030;2023-03-13T05:45:40;28.70;;;4.85;;
12745;SDS011;6437;53.686;10.030;2023-03-13T05:47:41;17.88;;;3.33;;
12745;SDS011;6437;53.686;10.030;2023-03-13T05:49:43;35.13;;;5.13;;
12745;SDS011;6437;53.686;10.030;2023-03-13T05:51:45;32.15;;;5.47;;
12745;SDS011;6437;53.686;10.030;2023-03-13T05:53:47;23.88;;;3.58;;
12745;SDS011;6437;53.686;10.030;2023-03-13T05:55:48;30.30;;;3.88;;
12745;SDS011;6437;53.686;10.030;2023-03-13T05:57:52;23.83;;;2.33;;
12745;SDS011;6437;53.686;10.030;2023-03-13T05:59:53;23.73;;;3.72;;
12745;SDS011;6437;53.686;10.030;2023-03-13T06:01:55;17.38;;;1.80;;
12745;SDS011;6437;53.686;10.030;2023-03-13T06:03:57;16.90;;;3.25;;
12745;SDS011;6437;53.686;10.030;2023-03-13T06:05:58;23.45;;;2.53;;
12745;SDS011;6437;53.686;10.030;2023-03-13T06:08:00;21.85;;;2.17;;
12745;SDS011;6437;53.686;10.030;2023-03-13T06:10:03;22.70;;;2.53;;
12745;SDS011;6437;53.686;10.030;2023-03-13T06:12:05;20.25;;;2.95;;
12745;SDS011;6437;53.686;10.030;2023-03-13T06:14:09;26.35;;;4.15;;
12745;SDS011;6437;53.686;10.030;2023-03-13T06:16:11;16.05;;;2.25;;
12745;SDS011;6437;53.686;10.030;2023-03-13T06:18:13;14.57;;;1.90;;
12745;SDS011;6437;53.686;10.030;2023-03-13T06:20:14;15.68;;;1.63;;
12745;SDS011;6437;53.686;10.030;2023-03-13T06:24:18;8.07;;;1.17;;
12745;SDS011;6437;53.686;10.030;2023-03-13T06:26:20;14.00;;;1.73;;
12745;SDS011;6437;53.686;10.030;2023-03-13T06:28:23;7.40;;;1.42;;
12745;SDS011;6437;53.686;10.030;2023-03-13T06:30:26;14.68;;;1.13;;
12745;SDS011;6437;53.686;10.030;2023-03-13T06:32:28;10.43;;;1.52;;
12745;SDS011;6437;53.686;10.030;2023-03-13T06:34:29;10.30;;;1.02;;
12745;SDS011;6437;53.686;10.030;2023-03-13T06:36:31;11.27;;;1.70;;
12745;SDS011;6437;53.686;10.030;2023-03-13T06:38:33;10.85;;;1.75;;
12745;SDS011;6437;53.686;10.030;2023-03-13T06:40:35;8.48;;;1.25;;
12745;SDS011;6437;53.686;10.030;2023-03-13T06:42:37;6.20;;;0.98;;
12745;SDS011;6437;53.686;10.030;2023-03-13T06:44:39;12.02;;;0.60;;
12745;SDS011;6437;53.686;10.030;2023-03-13T06:46:42;4.78;;;0.90;;
12745;SDS011;6437;53.686;10.030;2023-03-13T06:48:44;6.45;;;0.80;;
12745;SDS011;6437;53.686;10.030;2023-03-13T06:52:48;11.18;;;0.80;;
12745;SDS011;6437;53.686;10.030;2023-03-13T06:54:50;5.45;;;0.52;;
12745;SDS011;6437;53.686;10.030;2023-03-13T06:56:51;2.65;;;0.32;;
12745;SDS011;6437;53.686;10.030;2023-03-13T06:58:53;7.00;;;0.52;;
12745;SDS011;6437;53.686;10.030;2023-03-13T07:00:55;4.30;;;0.50;;
12745;SDS011;6437;53.686;10.030;2023-03-13T07:02:58;7.15;;;0.47;;
12745;SDS011;6437;53.686;10.030;2023-03-13T07:05:00;10.95;;;0.50;;
12745;SDS011;6437;53.686;10.030;2023-03-13T07:07:04;3.90;;;0.75;;
12745;SDS011;6437;53.686;10.030;2023-03-13T07:09:06;8.40;;;0.77;;
12745;SDS011;6437;53.686;10.030;2023-03-13T07:11:09;3.00;;;0.65;;
12745;SDS011;6437;53.686;10.030;2023-03-13T07:13:12;5.70;;;0.52;;
12745;SDS011;6437;53.686;10.030;2023-03-13T07:15:14;5.57;;;0.40;;
12745;SDS011;6437;53.686;10.030;2023-03-13T07:17:16;5.70;;;0.45;;
12745;SDS011;6437;53.686;10.030;2023-03-13T07:19:19;5.97;;;0.40;;
12745;SDS011;6437;53.686;10.030;2023-03-13T07:21:21;8.45;;;0.77;;
12745;SDS011;6437;53.686;10.030;2023-03-13T07:23:24;1.52;;;0.57;;
12745;SDS011;6437;53.686;10.030;2023-03-13T07:25:27;4.18;;;0.52;;
12745;SDS011;6437;53.686;10.030;2023-03-13T07:27:29;4.95;;;0.40;;
12745;SDS011;6437;53.686;10.030;2023-03-13T07:29:31;2.17;;;0.60;;
12745;SDS011;6437;53.686;10.030;2023-03-13T07:31:33;5.47;;;0.63;;
12745;SDS011;6437;53.686;10.030;2023-03-13T07:33:34;2.17;;;0.52;;
12745;SDS011;6437;53.686;10.030;2023-03-13T07:35:37;4.15;;;0.60;;
12745;SDS011;6437;53.686;10.030;2023-03-13T07:37:39;7.72;;;0.63;;
12745;SDS011;6437;53.686;10.030;2023-03-13T07:39:41;5.82;;;0.98;;
12745;SDS011;6437;53.686;10.030;2023-03-13T07:43:45;4.45;;;0.52;;
12745;SDS011;6437;53.686;10.030;2023-03-13T07:45:51;8.82;;;0.68;;
12745;SDS011;6437;53.686;10.030;2023-03-13T07:47:54;2.88;;;0.70;;
12745;SDS011;6437;53.686;10.030;2023-03-13T07:51:58;1.60;;;0.47;;
12745;SDS011;6437;53.686;10.030;2023-03-13T07:54:00;5.10;;;0.65;;
12745;SDS011;6437;53.686;10.030;2023-03-13T07:56:03;3.88;;;0.50;;
12745;SDS011;6437;53.686;10.030;2023-03-13T07:58:05;1.95;;;0.50;;
12745;SDS011;6437;53.686;10.030;2023-03-13T08:00:08;7.88;;;0.60;;
12745;SDS011;6437;53.686;10.030;2023-03-13T08:02:15;5.60;;;0.43;;
12745;SDS011;6437;53.686;10.030;2023-03-13T08:04:17;5.57;;;1.00;;
12745;SDS011;6437;53.686;10.030;2023-03-13T08:06:19;4.70;;;0.90;;
12745;SDS011;6437;53.686;10.030;2023-03-13T08:08:25;5.40;;;0.77;;
12745;SDS011;6437;53.686;10.030;2023-03-13T08:10:27;4.95;;;0.60;;
12745;SDS011;6437;53.686;10.030;2023-03-13T08:12:28;2.53;;;0.77;;
12745;SDS011;6437;53.686;10.030;2023-03-13T08:14:30;1.92;;;0.55;;
12745;SDS011;6437;53.686;10.030;2023-03-13T08:16:33;4.10;;;0.88;;
12745;SDS011;6437;53.686;10.030;2023-03-13T08:18:36;2.65;;;0.70;;
12745;SDS011;6437;53.686;10.030;2023-03-13T08:20:39;3.58;;;0.85;;
12745;SDS011;6437;53.686;10.030;2023-03-13T08:22:41;3.45;;;0.85;;
12745;SDS011;6437;53.686;10.030;2023-03-13T08:24:46;5.40;;;1.25;;
12745;SDS011;6437;53.686;10.030;2023-03-13T08:26:49;5.80;;;0.80;;
12745;SDS011;6437;53.686;10.030;2023-03-13T08:28:51;4.45;;;0.52;;
12745;SDS011;6437;53.686;10.030;2023-03-13T08:30:53;3.40;;;1.00;;
12745;SDS011;6437;53.686;10.030;2023-03-13T08:32:55;2.85;;;0.95;;
12745;SDS011;6437;53.686;10.030;2023-03-13T08:34:57;4.88;;;0.82;;
12745;SDS011;6437;53.686;10.030;2023-03-13T08:36:59;1.45;;;0.90;;
12745;SDS011;6437;53.686;10.030;2023-03-13T08:39:01;3.08;;;0.93;;
12745;SDS011;6437;53.686;10.030;2023-03-13T08:41:06;3.33;;;1.25;;
12745;SDS011;6437;53.686;10.030;2023-03-13T08:43:08;4.60;;;1.00;;
12745;SDS011;6437;53.686;10.030;2023-03-13T08:45:10;1.38;;;0.85;;
12745;SDS011;6437;53.686;10.030;2023-03-13T08:47:12;4.60;;;1.20;;
12745;SDS011;6437;53.686;10.030;2023-03-13T08:51:17;4.38;;;0.60;;
12745;SDS011;6437;53.686;10.030;2023-03-13T08:53:19;5.55;;;1.58;;
12745;SDS011;6437;53.686;10.030;2023-03-13T08:55:21;4.43;;;1.27;;
12745;SDS011;6437;53.686;10.030;2023-03-13T08:57:24;3.38;;;1.23;;
12745;SDS011;6437;53.686;10.030;2023-03-13T08:59:26;4.22;;;1.13;;
12745;SDS011;6437;53.686;10.030;2023-03-13T09:01:28;4.95;;;1.50;;
12745;SDS011;6437;53.686;10.030;2023-03-13T09:03:31;3.92;;;1.60;;
12745;SDS011;6437;53.686;10.030;2023-03-13T09:05:33;2.35;;;1.23;;
12745;SDS011;6437;53.686;10.030;2023-03-13T09:07:37;5.07;;;1.63;;
12745;SDS011;6437;53.686;10.030;2023-03-13T09:11:41;3.88;;;1.52;;
12745;SDS011;6437;53.686;10.030;2023-03-13T09:13:46;6.00;;;1.70;;
12745;SDS011;6437;53.686;10.030;2023-03-13T09:15:52;6.22;;;2.53;;
12745;SDS011;6437;53.686;10.030;2023-03-13T09:17:55;6.22;;;2.67;;
12745;SDS011;6437;53.686;10.030;2023-03-13T09:19:56;18.70;;;1.90;;
12745;SDS011;6437;53.686;10.030;2023-03-13T09:21:58;10.30;;;2.45;;
12745;SDS011;6437;53.686;10.030;2023-03-13T09:24:00;5.10;;;2.13;;
12745;SDS011;6437;53.686;10.030;2023-03-13T09:26:02;4.75;;;1.85;;
12745;SDS011;6437;53.686;10.030;2023-03-13T09:28:04;6.40;;;1.90;;
12745;SDS011;6437;53.686;10.030;2023-03-13T09:30:08;6.45;;;2.38;;
12745;SDS011;6437;53.686;10.030;2023-03-13T09:32:11;7.32;;;3.20;;
12745;SDS011;6437;53.686;10.030;2023-03-13T09:34:13;9.75;;;2.72;;
12745;SDS011;6437;53.686;10.030;2023-03-13T09:36:15;7.85;;;3.30;;
12745;SDS011;6437;53.686;10.030;2023-03-13T09:38:17;10.45;;;2.45;;
12745;SDS011;6437;53.686;10.030;2023-03-13T09:40:21;6.60;;;2.60;;
12745;SDS011;6437;53.686;10.030;2023-03-13T09:42:28;3.88;;;1.98;;
12745;SDS011;6437;53.686;10.030;2023-03-13T09:44:37;9.38;;;2.85;;
12745;SDS011;6437;53.686;10.030;2023-03-13T09:46:44;6.13;;;1.63;;
12745;SDS011;6437;53.686;10.030;2023-03-13T09:48:49;7.28;;;1.90;;
12745;SDS011;6437;53.686;10.030;2023-03-13T09:50:56;6.22;;;2.13;;
12745;SDS011;6437;53.686;10.030;2023-03-13T09:53:05;5.18;;;2.17;;
12745;SDS011;6437;53.686;10.030;2023-03-13T09:55:16;6.93;;;2.72;;
12745;SDS011;6437;53.686;10.030;2023-03-13T09:57:23;12.75;;;2.78;;
12745;SDS011;6437;53.686;10.030;2023-03-13T09:59:32;6.85;;;2.10;;
12745;SDS011;6437;53.686;10.030;2023-03-13T10:01:46;8.88;;;2.13;;
12745;SDS011;6437;53.686;10.030;2023-03-13T10:03:53;8.55;;;2.60;;
12745;SDS011;6437;53.686;10.030;2023-03-13T10:06:01;6.35;;;2.67;;
12745;SDS011;6437;53.686;10.030;2023-03-13T10:08:09;9.93;;;2.95;;
12745;SDS011;6437;53.686;10.030;2023-03-13T10:10:15;5.47;;;2.13;;
12745;SDS011;6437;53.686;10.030;2023-03-13T10:12:19;9.30;;;3.17;;
12745;SDS011;6437;53.686;10.030;2023-03-13T10:14:27;9.55;;;3.33;;
12745;SDS011;6437;53.686;10.030;2023-03-13T10:16:32;8.02;;;2.85;;
12745;SDS011;6437;53.686;10.030;2023-03-13T10:18:40;6.00;;;2.30;;
12745;SDS011;6437;53.686;10.030;2023-03-13T10:20:46;6.75;;;2.53;;
12745;SDS011;6437;53.686;10.030;2023-03-13T10:22:49;9.57;;;2.67;;
12745;SDS011;6437;53.686;10.030;2023-03-13T10:24:56;6.45;;;2.63;;
12745;SDS011;6437;53.686;10.030;2023-03-13T10:27:00;6.00;;;1.85;;
12745;SDS011;6437;53.686;10.030;2023-03-13T10:29:10;8.60;;;3.00;;
12745;SDS011;6437;53.686;10.030;2023-03-13T10:31:20;6.43;;;3.05;;
12745;SDS011;6437;53.686;10.030;2023-03-13T10:33:28;6.90;;;3.08;;
12745;SDS011;6437;53.686;10.030;2023-03-13T10:35:34;9.25;;;3.05;;
12745;SDS011;6437;53.686;10.030;2023-03-13T10:37:39;4.65;;;2.03;;
12745;SDS011;6437;53.686;10.030;2023-03-13T10:39:43;9.43;;;2.80;;
12745;SDS011;6437;53.686;10.030;2023-03-13T10:41:44;11.80;;;2.20;;
12745;SDS011;6437;53.686;10.030;2023-03-13T10:43:50;9.20;;;2.22;;
12745;SDS011;6437;53.686;10.030;2023-03-13T10:45:53;3.83;;;1.85;;
12745;SDS011;6437;53.686;10.030;2023-03-13T10:47:56;9.05;;;2.35;;
12745;SDS011;6437;53.686;10.030;2023-03-13T10:50:01;10.30;;;2.55;;
12745;SDS011;6437;53.686;10.030;2023-03-13T10:52:10;3.83;;;1.58;;
12745;SDS011;6437;53.686;10.030;2023-03-13T10:54:31;4.35;;;2.03;;
12745;SDS011;6437;53.686;10.030;2023-03-13T10:56:35;8.80;;;2.00;;
12745;SDS011;6437;53.686;10.030;2023-03-13T10:58:40;6.35;;;2.17;;
12745;SDS011;6437;53.686;10.030;2023-03-13T11:00:43;5.18;;;1.77;;
12745;SDS011;6437;53.686;10.030;2023-03-13T11:02:45;3.80;;;1.75;;
12745;SDS011;6437;53.686;10.030;2023-03-13T11:04:47;4.72;;;1.75;;
12745;SDS011;6437;53.686;10.030;2023-03-13T11:06:54;11.15;;;1.65;;
12745;SDS011;6437;53.686;10.030;2023-03-13T11:09:04;9.95;;;2.17;;
12745;SDS011;6437;53.686;10.030;2023-03-13T11:11:16;5.22;;;1.85;;
12745;SDS011;6437;53.686;10.030;2023-03-13T11:13:26;7.65;;;1.48;;
12745;SDS011;6437;53.686;10.030;2023-03-13T11:15:31;9.43;;;1.65;;
12745;SDS011;6437;53.686;10.030;2023-03-13T11:17:39;6.90;;;1.10;;
12745;SDS011;6437;53.686;10.030;2023-03-13T11:19:46;3.67;;;1.40;;
12745;SDS011;6437;53.686;10.030;2023-03-13T11:22:00;5.72;;;1.48;;
12745;SDS011;6437;53.686;10.030;2023-03-13T11:24:25;7.63;;;2.38;;
12745;SDS011;6437;53.686;10.030;2023-03-13T11:26:33;9.63;;;1.60;;
12745;SDS011;6437;53.686;10.030;2023-03-13T11:28:41;7.82;;;0.98;;
12745;SDS011;6437;53.686;10.030;2023-03-13T11:30:54;3.05;;;1.17;;
12745;SDS011;6437;53.686;10.030;2023-03-13T11:33:09;2.28;;;1.02;;
12745;SDS011;6437;53.686;10.030;2023-03-13T11:35:32;5.35;;;0.77;;
12745;SDS011;6437;53.686;10.030;2023-03-13T11:37:38;4.78;;;0.80;;
12745;SDS011;6437;53.686;10.030;2023-03-13T11:39:49;10.77;;;1.30;;
12745;SDS011;6437;53.686;10.030;2023-03-13T11:42:00;4.03;;;0.90;;
12745;SDS011;6437;53.686;10.030;2023-03-13T11:44:11;9.85;;;1.00;;
12745;SDS011;6437;53.686;10.030;2023-03-13T11:46:26;5.00;;;1.08;;
12745;SDS011;6437;53.686;10.030;2023-03-13T11:48:46;6.22;;;1.67;;
12745;SDS011;6437;53.686;10.030;2023-03-13T11:50:59;2.70;;;1.02;;
12745;SDS011;6437;53.686;10.030;2023-03-13T11:53:11;9.18;;;0.98;;
12745;SDS011;6437;53.686;10.030;2023-03-13T11:55:38;4.72;;;0.68;;
12745;SDS011;6437;53.686;10.030;2023-03-13T11:57:47;7.32;;;0.70;;
12745;SDS011;6437;53.686;10.030;2023-03-13T12:00:02;7.03;;;1.20;;
12745;SDS011;6437;53.686;10.030;2023-03-13T12:02:17;6.95;;;0.88;;
12745;SDS011;6437;53.686;10.030;2023-03-13T12:04:24;6.38;;;0.57;;
12745;SDS011;6437;53.686;10.030;2023-03-13T12:06:33;5.00;;;0.93;;
12745;SDS011;6437;53.686;10.030;2023-03-13T12:08:38;3.47;;;1.35;;
12745;SDS011;6437;53.686;10.030;2023-03-13T12:10:46;2.45;;;0.82;;
12745;SDS011;6437;53.686;10.030;2023-03-13T12:12:55;6.47;;;0.80;;
12745;SDS011;6437;53.686;10.030;2023-03-13T12:15:05;4.15;;;0.93;;
12745;SDS011;6437;53.686;10.030;2023-03-13T12:17:20;10.38;;;1.25;;
12745;SDS011;6437;53.686;10.030;2023-03-13T12:19:29;7.00;;;1.10;;
12745;SDS011;6437;53.686;10.030;2023-03-13T12:21:38;6.00;;;0.80;;
12745;SDS011;6437;53.686;10.030;2023-03-13T12:23:47;4.47;;;1.20;;
12745;SDS011;6437;53.686;10.030;2023-03-13T12:25:58;4.03;;;1.00;;
12745;SDS011;6437;53.686;10.030;2023-03-13T12:28:08;5.53;;;0.70;;
12745;SDS011;6437;53.686;10.030;2023-03-13T12:30:24;3.67;;;0.88;;
12745;SDS011;6437;53.686;10.030;2023-03-13T12:32:35;3.10;;;1.45;;
12745;SDS011;6437;53.686;10.030;2023-03-13T12:34:43;4.63;;;1.33;;
12745;SDS011;6437;53.686;10.030;2023-03-13T12:36:56;6.32;;;0.70;;
12745;SDS011;6437;53.686;10.030;2023-03-13T12:39:09;5.80;;;1.67;;
12745;SDS011;6437;53.686;10.030;2023-03-13T12:43:25;3.40;;;1.23;;
12745;SDS011;6437;53.686;10.030;2023-03-13T12:45:31;3.50;;;0.80;;
12745;SDS011;6437;53.686;10.030;2023-03-13T12:47:39;3.47;;;0.70;;